Time;durP1;ratioP1;P1;durP2;ratioP2;P2;SDS_P1;SDS_P2;PMS_P1;PMS_P2;Temp;Humidity;BMP_temperature;BMP_pressure;BME280_temperature;BME280_humidity;BME280_pressure;Samples;Min_cycle;Max_cycle;Signal;HPM_P1;HPM_P2
2022/11/18 00:01:29;;;;;;;21.15;16.35;;;7.70;99.90;;;;;;5090610;28;20036;-73
2022/11/18 00:03:55;;;;;;;24.25;16.05;;;7.30;99.90;;;;;;5090242;28;20040;-73
2022/11/18 00:06:23;;;;;;;20.40;15.43;;;7.30;99.90;;;;;;5092079;28;20036;-73
2022/11/18 00:08:49;;;;;;;21.05;15.38;;;7.30;99.90;;;;;;5090614;28;20040;-73
2022/11/18 00:14:18;;;;;;;21.15;15.70;;;7.30;99.90;;;;;;5002850;28;20053;-73
2022/11/18 00:16:49;;;;;;;20.80;15.13;;;7.30;99.90;;;;;;5090568;28;20123;-73
2022/11/18 00:19:15;;;;;;;20.30;15.32;;;7.60;99.90;;;;;;5090417;28;20432;-73
2022/11/18 00:21:40;;;;;;;20.33;14.93;;;7.30;99.90;;;;;;5090302;28;20089;-73
2022/11/18 00:24:06;;;;;;;21.17;14.85;;;7.30;99.90;;;;;;5091224;28;20652;-73
2022/11/18 00:26:32;;;;;;;22.23;14.93;;;7.50;99.90;;;;;;5091622;28;20032;-73
2022/11/18 00:28:58;;;;;;;21.55;15.70;;;7.30;99.90;;;;;;5090246;28;20036;-73
2022/11/18 00:31:23;;;;;;;23.20;15.90;;;7.50;99.90;;;;;;5090242;28;20049;-73
2022/11/18 00:33:49;;;;;;;22.80;15.93;;;7.30;99.90;;;;;;5090169;28;20379;-73
2022/11/18 00:36:14;;;;;;;21.45;15.50;;;7.50;99.90;;;;;;5094832;28;20048;-73
2022/11/18 00:38:40;;;;;;;23.35;16.15;;;7.50;99.90;;;;;;5095771;28;20540;-73
2022/11/18 00:41:11;;;;;;;24.25;16.75;;;7.50;99.90;;;;;;5094686;28;20106;-73
2022/11/18 00:43:37;;;;;;;23.60;16.58;;;7.60;99.90;;;;;;5094086;28;20044;-73
2022/11/18 00:46:05;;;;;;;20.23;14.68;;;7.40;99.90;;;;;;5094604;28;20048;-73
2022/11/18 00:48:31;;;;;;;23.85;15.05;;;7.40;99.90;;;;;;5094317;28;20558;-73
2022/11/18 00:50:58;;;;;;;23.80;14.93;;;7.20;99.90;;;;;;5094581;28;20040;-73
2022/11/18 00:53:25;;;;;;;26.02;16.48;;;7.40;99.90;;;;;;5095145;28;20512;-73
2022/11/18 00:55:52;;;;;;;24.85;15.85;;;7.40;99.90;;;;;;5094255;28;20044;-73
2022/11/18 00:58:18;;;;;;;22.65;15.73;;;7.50;99.90;;;;;;5094093;28;20044;-73
2022/11/18 01:00:47;;;;;;;25.35;16.05;;;7.20;99.90;;;;;;5095345;28;20046;-73
2022/11/18 01:03:13;;;;;;;25.65;16.40;;;7.50;99.90;;;;;;5093669;28;20501;-73
2022/11/18 01:05:39;;;;;;;23.05;16.23;;;7.60;99.90;;;;;;5093991;28;20038;-73
2022/11/18 01:08:06;;;;;;;23.63;16.23;;;7.30;99.90;;;;;;5093904;28;20040;-73
2022/11/18 01:10:32;;;;;;;25.85;17.58;;;7.50;99.90;;;;;;5094158;28;20040;-73
2022/11/18 01:15:44;;;;;;;52.17;30.65;;;7.50;99.90;;;;;;5095025;28;20086;-73
2022/11/18 01:18:10;;;;;;;75.97;39.83;;;7.30;99.90;;;;;;5093731;28;20044;-73
2022/11/18 01:20:36;;;;;;;85.47;45.65;;;7.40;99.90;;;;;;5094993;28;20051;-73
2022/11/18 01:23:02;;;;;;;87.72;46.17;;;7.30;99.90;;;;;;5093293;28;20036;-73
2022/11/18 01:25:28;;;;;;;83.68;45.53;;;7.30;99.90;;;;;;5095057;28;20040;-73
2022/11/18 01:27:54;;;;;;;79.45;43.30;;;7.30;99.90;;;;;;5094752;28;20058;-73
2022/11/18 01:30:20;;;;;;;84.85;44.17;;;7.40;99.90;;;;;;5093777;28;20032;-73
2022/11/18 01:32:45;;;;;;;83.07;42.78;;;7.40;99.90;;;;;;5094419;28;20044;-73
2022/11/18 01:35:11;;;;;;;71.95;40.65;;;7.20;99.90;;;;;;5093354;28;20047;-73
2022/11/18 01:37:37;;;;;;;88.43;42.15;;;7.20;99.90;;;;;;5093363;28;20619;-73
2022/11/18 01:40:04;;;;;;;92.82;45.63;;;7.20;99.90;;;;;;5093546;28;20032;-73
2022/11/18 01:42:30;;;;;;;83.85;45.85;;;7.10;99.90;;;;;;5093143;28;20465;-73
2022/11/18 01:45:14;;;;;;;88.50;44.00;;;7.40;99.90;;;;;;5092832;28;20135;-73
2022/11/18 01:47:44;;;;;;;79.75;39.90;;;7.10;99.90;;;;;;5093318;28;20037;-73
2022/11/18 01:50:11;;;;;;;63.33;33.08;;;7.30;99.90;;;;;;5093590;28;20414;-73
2022/11/18 01:52:38;;;;;;;67.50;33.65;;;7.20;99.90;;;;;;5092997;28;20118;-73
2022/11/18 01:55:11;;;;;;;60.28;31.45;;;7.20;99.90;;;;;;5093090;28;20040;-73
2022/11/18 01:57:37;;;;;;;48.72;27.90;;;7.30;99.90;;;;;;5076158;28;20036;-73
2022/11/18 02:00:05;;;;;;;42.33;24.40;;;7.30;99.90;;;;;;5092895;28;20502;-73
2022/11/18 02:02:34;;;;;;;37.67;21.67;;;7.40;99.90;;;;;;5092517;28;20082;-73
2022/11/18 02:05:01;;;;;;;36.28;21.63;;;7.30;99.90;;;;;;5093087;28;20048;-73
2022/11/18 02:07:27;;;;;;;34.38;20.73;;;7.10;99.90;;;;;;5093043;28;20486;-73
2022/11/18 02:09:56;;;;;;;38.25;22.08;;;7.10;99.90;;;;;;5092654;28;20036;-73
2022/11/18 02:12:22;;;;;;;39.75;22.77;;;7.00;99.90;;;;;;5093605;28;20040;-73
2022/11/18 02:14:49;;;;;;;44.47;24.38;;;7.10;99.90;;;;;;5075759;28;20036;-73
2022/11/18 02:17:27;;;;;;;43.05;24.90;;;7.10;99.90;;;;;;5092734;28;20040;-73
2022/11/18 02:20:11;;;;;;;45.17;24.60;;;7.20;99.90;;;;;;5092670;28;20096;-73
2022/11/18 02:23:05;;;;;;;59.90;29.23;;;7.10;99.90;;;;;;5092146;28;20036;-73
2022/11/18 02:25:30;;;;;;;62.70;29.98;;;7.10;99.90;;;;;;5092515;28;20048;-73
2022/11/18 02:28:34;;;;;;;67.13;33.22;;;7.20;99.90;;;;;;5092583;28;20129;-73
2022/11/18 02:31:02;;;;;;;76.55;37.25;;;6.90;99.90;;;;;;5092458;28;20048;-73
2022/11/18 02:33:31;;;;;;;58.92;30.67;;;6.90;99.90;;;;;;5093414;28;20048;-73
2022/11/18 02:36:06;;;;;;;67.25;33.72;;;7.10;99.90;;;;;;5075459;28;20043;-73
2022/11/18 02:38:41;;;;;;;80.28;36.72;;;7.00;99.90;;;;;;5092626;28;20039;-73
2022/11/18 02:41:18;;;;;;;64.28;32.42;;;7.20;99.90;;;;;;5093560;28;20040;-73
2022/11/18 02:43:58;;;;;;;45.55;24.35;;;6.90;99.90;;;;;;5091737;28;20055;-73
2022/11/18 02:46:28;;;;;;;44.38;22.88;;;7.20;99.90;;;;;;5092185;28;20040;-73
2022/11/18 02:48:55;;;;;;;42.03;20.67;;;6.80;99.90;;;;;;5092167;28;20036;-73
2022/11/18 02:51:25;;;;;;;32.80;19.17;;;7.10;99.90;;;;;;5093360;28;20032;-73
2022/11/18 02:53:53;;;;;;;30.40;16.88;;;7.20;99.90;;;;;;5091812;28;20416;-73
2022/11/18 02:56:20;;;;;;;28.83;17.90;;;7.20;99.90;;;;;;5091377;28;20085;-73
2022/11/18 02:58:46;;;;;;;32.83;18.48;;;7.00;99.90;;;;;;5091404;28;20524;-73
2022/11/18 03:01:21;;;;;;;34.78;17.23;;;6.90;99.90;;;;;;5091748;28;20075;-73
2022/11/18 03:03:47;;;;;;;27.77;16.73;;;7.00;99.90;;;;;;5091472;28;20087;-73
2022/11/18 03:06:32;;;;;;;25.67;15.30;;;7.00;99.90;;;;;;5091663;28;20067;-73
2022/11/18 03:09:06;;;;;;;26.27;16.30;;;6.80;99.90;;;;;;5091895;28;20055;-73
2022/11/18 03:11:39;;;;;;;28.23;15.23;;;7.00;99.90;;;;;;5091789;28;20035;-73
2022/11/18 03:14:13;;;;;;;23.73;14.30;;;6.90;99.90;;;;;;5091303;28;20036;-73
2022/11/18 03:17:06;;;;;;;29.27;16.00;;;7.00;99.90;;;;;;5091474;28;20040;-73
2022/11/18 03:19:39;;;;;;;22.77;14.40;;;6.90;99.90;;;;;;5085045;28;20104;-73
2022/11/18 03:22:37;;;;;;;22.70;14.80;;;6.90;99.90;;;;;;5091585;28;20626;-73
2022/11/18 03:25:35;;;;;;;23.98;15.05;;;7.00;99.90;;;;;;5080306;28;20056;-73
2022/11/18 03:28:11;;;;;;;25.85;14.25;;;6.80;99.90;;;;;;5091265;28;20043;-73
2022/11/18 03:30:42;;;;;;;25.33;13.60;;;7.00;99.90;;;;;;5091253;28;20036;-73
2022/11/18 03:33:13;;;;;;;23.90;14.73;;;6.70;99.90;;;;;;5090893;28;20040;-73
2022/11/18 03:35:42;;;;;;;23.75;14.30;;;6.60;99.90;;;;;;5091188;28;20043;-73
2022/11/18 03:38:13;;;;;;;25.30;14.80;;;6.70;99.90;;;;;;5091339;28;20521;-73
2022/11/18 03:40:43;;;;;;;23.58;13.60;;;7.00;99.90;;;;;;5091409;28;20043;-73
2022/11/18 03:43:13;;;;;;;21.63;13.48;;;6.70;99.90;;;;;;5090624;28;20561;-73
2022/11/18 03:45:46;;;;;;;23.55;13.95;;;6.90;99.90;;;;;;5091277;28;20040;-73
2022/11/18 03:48:28;;;;;;;26.05;14.38;;;6.60;99.90;;;;;;5090968;28;20048;-73
2022/11/18 03:50:59;;;;;;;22.92;13.73;;;6.70;99.90;;;;;;5092477;28;20040;-73
2022/11/18 03:53:29;;;;;;;36.13;15.43;;;6.70;99.90;;;;;;5091801;28;20123;-73
2022/11/18 03:56:00;;;;;;;23.65;14.15;;;6.70;99.90;;;;;;5092184;28;20039;-73
2022/11/18 03:58:37;;;;;;;30.90;14.50;;;6.70;99.90;;;;;;5090834;28;20486;-73
2022/11/18 04:01:15;;;;;;;22.83;13.45;;;6.90;99.90;;;;;;5091038;28;20631;-73
2022/11/18 04:03:42;;;;;;;24.17;13.85;;;6.90;99.90;;;;;;5073339;28;20480;-73
2022/11/18 04:06:31;;;;;;;25.45;14.63;;;6.90;99.90;;;;;;5090527;28;20044;-73
2022/11/18 04:09:02;;;;;;;23.20;12.90;;;6.90;99.90;;;;;;5073425;28;20042;-73
2022/11/18 04:14:19;;;;;;;29.20;13.98;;;6.90;99.90;;;;;;5090059;28;20525;-72
2022/11/18 04:16:51;;;;;;;24.77;14.50;;;7.00;99.90;;;;;;5091914;28;20039;-73
2022/11/18 04:19:17;;;;;;;27.83;15.77;;;6.70;99.90;;;;;;5090549;28;20558;-72
2022/11/18 04:21:42;;;;;;;21.75;12.82;;;6.60;99.90;;;;;;5090522;28;20032;-73
2022/11/18 04:24:08;;;;;;;21.45;13.30;;;6.80;99.90;;;;;;5090233;28;20515;-73
2022/11/18 04:26:33;;;;;;;24.00;13.27;;;6.80;99.90;;;;;;5091589;28;20044;-73
2022/11/18 04:28:59;;;;;;;23.70;13.88;;;6.90;99.90;;;;;;5091642;28;20153;-73
2022/11/18 04:31:25;;;;;;;22.08;13.43;;;6.60;99.90;;;;;;5091796;28;20036;-75
2022/11/18 04:33:50;;;;;;;26.15;13.65;;;6.90;99.90;;;;;;5091455;28;20079;-73
2022/11/18 04:36:16;;;;;;;22.75;12.48;;;6.90;99.90;;;;;;5090167;28;20051;-73
2022/11/18 04:38:41;;;;;;;21.95;13.15;;;6.50;99.90;;;;;;5090307;28;20040;-73
2022/11/18 04:41:07;;;;;;;22.80;13.55;;;6.80;99.90;;;;;;5073583;28;20067;-74
2022/11/18 04:43:32;;;;;;;24.13;13.82;;;6.60;99.90;;;;;;5091114;28;20066;-73
2022/11/18 04:45:58;;;;;;;20.77;13.02;;;6.60;99.90;;;;;;5090664;28;20040;-73
2022/11/18 04:48:23;;;;;;;23.33;12.85;;;6.90;99.90;;;;;;5091589;28;20040;-73
2022/11/18 04:50:49;;;;;;;25.10;14.18;;;6.60;99.90;;;;;;5091424;28;20040;-73
2022/11/18 04:53:14;;;;;;;28.98;14.63;;;6.60;99.90;;;;;;5089743;28;20481;-73
2022/11/18 04:55:40;;;;;;;23.63;13.15;;;6.60;99.90;;;;;;5090116;28;20409;-73
2022/11/18 04:58:05;;;;;;;24.15;14.45;;;6.60;99.90;;;;;;5090197;28;20040;-72
2022/11/18 05:00:31;;;;;;;26.98;13.85;;;6.70;99.90;;;;;;5090168;28;20048;-73
2022/11/18 05:02:56;;;;;;;29.42;14.00;;;6.70;99.90;;;;;;5092011;28;20044;-73
2022/11/18 05:05:22;;;;;;;28.67;15.40;;;6.80;99.90;;;;;;5091469;28;20409;-73
2022/11/18 05:07:47;;;;;;;28.58;14.10;;;6.60;99.90;;;;;;5091776;28;20044;-73
2022/11/18 05:10:13;;;;;;;27.23;15.20;;;6.60;99.90;;;;;;5090258;28;20234;-73
2022/11/18 05:12:47;;;;;;;27.98;16.50;;;6.50;99.90;;;;;;5090987;28;20043;-73
2022/11/18 05:15:13;;;;;;;31.42;14.55;;;6.60;99.90;;;;;;5090078;28;20119;-73
2022/11/18 05:17:38;;;;;;;27.17;16.08;;;6.50;99.90;;;;;;5091289;28;20551;-73
2022/11/18 05:20:04;;;;;;;24.13;14.52;;;6.60;99.90;;;;;;5090606;28;20386;-73
2022/11/18 05:22:30;;;;;;;23.67;14.93;;;6.80;99.90;;;;;;5093263;28;20067;-73
2022/11/18 05:24:55;;;;;;;22.73;14.82;;;6.50;99.90;;;;;;5093727;28;20040;-73
2022/11/18 05:27:21;;;;;;;26.95;14.65;;;6.60;99.90;;;;;;5095056;28;20174;-73
2022/11/18 05:29:46;;;;;;;23.65;13.93;;;6.60;99.90;;;;;;5095243;28;20047;-73
2022/11/18 05:32:12;;;;;;;26.70;14.90;;;6.40;99.90;;;;;;5089618;28;20041;-73
2022/11/18 05:34:39;;;;;;;27.60;13.55;;;6.40;99.90;;;;;;5088336;28;20036;-73
2022/11/18 05:37:05;;;;;;;25.42;14.45;;;6.70;99.90;;;;;;5091798;28;20068;-73
2022/11/18 05:39:32;;;;;;;23.63;13.77;;;6.80;99.90;;;;;;5093529;28;20115;-73
2022/11/18 05:44:41;;;;;;;25.77;14.40;;;6.50;99.90;;;;;;5093265;28;20129;-74
2022/11/18 05:47:07;;;;;;;27.48;14.75;;;6.70;99.90;;;;;;5093636;28;20098;-73
2022/11/18 05:49:32;;;;;;;26.85;15.82;;;6.70;99.90;;;;;;5093442;28;20552;-73
2022/11/18 05:51:58;;;;;;;28.38;15.93;;;6.50;99.90;;;;;;5093166;28;20036;-73
2022/11/18 05:54:25;;;;;;;26.60;16.23;;;6.80;99.90;;;;;;5093338;28;20044;-73
2022/11/18 05:56:50;;;;;;;30.67;15.57;;;6.80;99.90;;;;;;5094527;28;20036;-73
2022/11/18 05:59:16;;;;;;;30.42;15.75;;;6.50;99.90;;;;;;5094344;28;20490;-73
2022/11/18 06:01:57;;;;;;;27.35;16.15;;;6.60;99.90;;;;;;5094030;28;20456;-73
2022/11/18 06:04:38;;;;;;;29.70;14.45;;;6.40;99.90;;;;;;5092599;28;20051;-73
2022/11/18 06:07:24;;;;;;;30.00;15.93;;;6.50;99.90;;;;;;5092888;28;20036;-73
2022/11/18 06:09:54;;;;;;;33.97;18.30;;;6.40;99.90;;;;;;5092903;28;20058;-73
2022/11/18 06:12:24;;;;;;;28.80;15.23;;;6.40;99.90;;;;;;5092809;28;20080;-73
2022/11/18 06:14:57;;;;;;;31.65;15.85;;;6.40;99.90;;;;;;5093122;28;20588;-73
2022/11/18 06:17:36;;;;;;;32.17;16.23;;;6.60;99.90;;;;;;5092729;28;20093;-73
2022/11/18 06:20:03;;;;;;;28.27;16.15;;;6.70;99.90;;;;;;5093982;28;20135;-73
2022/11/18 06:22:28;;;;;;;31.33;16.27;;;6.60;99.90;;;;;;5092134;28;20075;-73
2022/11/18 06:24:54;;;;;;;30.48;16.45;;;6.50;99.90;;;;;;5092475;28;20454;-73
2022/11/18 06:27:20;;;;;;;33.25;17.25;;;6.50;99.90;;;;;;5093961;28;20413;-74
2022/11/18 06:29:45;;;;;;;35.80;18.40;;;6.70;99.90;;;;;;5092815;28;20374;-73
2022/11/18 06:32:11;;;;;;;32.40;17.17;;;6.70;99.90;;;;;;5091017;28;20055;-73
2022/11/18 06:34:36;;;;;;;33.60;17.33;;;6.60;99.90;;;;;;5092062;28;20040;-73
2022/11/18 06:37:16;;;;;;;30.13;16.27;;;6.30;99.90;;;;;;5092318;28;20036;-73
2022/11/18 06:39:42;;;;;;;31.05;16.60;;;6.30;99.90;;;;;;5092607;28;20413;-73
2022/11/18 06:42:07;;;;;;;32.97;16.15;;;6.60;99.90;;;;;;5092085;28;20044;-73
2022/11/18 06:44:33;;;;;;;30.35;17.02;;;6.60;99.90;;;;;;5091821;28;20039;-73
2022/11/18 06:46:58;;;;;;;35.95;17.08;;;6.30;99.90;;;;;;5092095;28;20514;-72
2022/11/18 06:49:25;;;;;;;32.22;15.32;;;6.60;99.90;;;;;;5093331;28;20714;-73
2022/11/18 06:51:50;;;;;;;31.17;16.05;;;6.30;99.90;;;;;;5092130;28;20103;-71
2022/11/18 06:54:16;;;;;;;31.67;17.10;;;6.30;99.90;;;;;;5091731;28;20043;-72
2022/11/18 06:56:41;;;;;;;36.28;17.48;;;6.20;99.90;;;;;;5091909;28;20085;-72
2022/11/18 06:59:07;;;;;;;30.80;16.90;;;6.30;99.90;;;;;;5091791;28;20040;-71
2022/11/18 07:01:38;;;;;;;38.13;16.80;;;6.60;99.90;;;;;;5091994;28;20101;-71
2022/11/18 07:04:04;;;;;;;33.90;15.05;;;6.20;99.90;;;;;;5092651;28;20048;-73
2022/11/18 07:06:32;;;;;;;34.60;15.95;;;6.40;99.90;;;;;;5092025;28;20460;-71
2022/11/18 07:09:00;;;;;;;28.45;15.65;;;6.60;99.90;;;;;;5093213;28;20089;-73
2022/11/18 07:11:26;;;;;;;28.17;15.38;;;6.20;99.90;;;;;;5092999;28;20113;-72
2022/11/18 07:13:51;;;;;;;34.22;15.32;;;6.30;99.90;;;;;;5092673;28;20090;-71
2022/11/18 07:16:22;;;;;;;31.50;16.38;;;6.40;99.90;;;;;;5092909;28;20067;-73
2022/11/18 07:18:49;;;;;;;29.20;15.52;;;6.50;99.90;;;;;;5091492;28;20044;-72
2022/11/18 07:21:18;;;;;;;27.45;15.38;;;6.50;99.90;;;;;;5091659;28;20055;-72
2022/11/18 07:23:44;;;;;;;31.33;15.60;;;6.30;99.90;;;;;;5091057;28;20048;-72
2022/11/18 07:26:10;;;;;;;34.08;15.52;;;6.30;99.90;;;;;;5092621;28;20075;-72
2022/11/18 07:28:36;;;;;;;34.58;16.75;;;6.60;99.90;;;;;;5092417;28;20454;-72
2022/11/18 07:31:04;;;;;;;31.90;15.60;;;6.20;99.90;;;;;;5091157;28;20034;-72
2022/11/18 07:33:30;;;;;;;33.25;15.50;;;6.20;99.90;;;;;;5090806;28;20051;-72
2022/11/18 07:36:00;;;;;;;35.20;20.40;;;6.50;99.90;;;;;;5091207;28;20122;-71
2022/11/18 07:38:26;;;;;;;27.92;16.27;;;6.60;99.90;;;;;;5093067;28;20036;-72
2022/11/18 07:40:51;;;;;;;30.13;15.63;;;6.40;99.90;;;;;;5091354;28;20561;-72
2022/11/18 07:43:17;;;;;;;28.20;15.38;;;6.50;99.90;;;;;;5090194;28;20048;-72
2022/11/18 07:45:42;;;;;;;30.25;15.05;;;6.10;99.90;;;;;;5078515;28;20370;-73
2022/11/18 07:48:08;;;;;;;29.45;16.48;;;6.40;99.90;;;;;;5070705;28;20082;-75
2022/11/18 07:50:33;;;;;;;31.95;16.55;;;6.30;99.90;;;;;;5070384;28;20072;-75
2022/11/18 07:52:59;;;;;;;27.45;15.50;;;6.50;99.90;;;;;;5070218;28;20129;-74
2022/11/18 07:55:24;;;;;;;28.08;15.65;;;6.40;99.90;;;;;;5070521;28;20498;-75
2022/11/18 07:57:50;;;;;;;33.15;15.23;;;6.40;99.90;;;;;;5070890;28;20054;-75
2022/11/18 08:00:16;;;;;;;29.02;14.23;;;6.20;99.90;;;;;;5070669;28;20116;-75
2022/11/18 08:02:42;;;;;;;27.42;14.93;;;6.40;99.90;;;;;;5069817;28;20040;-75
2022/11/18 08:05:08;;;;;;;24.17;14.25;;;6.40;99.90;;;;;;5070723;28;20076;-75
2022/11/18 08:07:34;;;;;;;21.15;13.40;;;6.40;99.90;;;;;;5070745;28;20557;-75
2022/11/18 08:10:02;;;;;;;22.50;13.73;;;6.00;99.90;;;;;;5070463;28;20040;-75
2022/11/18 08:12:29;;;;;;;25.35;14.68;;;6.20;99.90;;;;;;5070099;28;20047;-75
2022/11/18 08:14:55;;;;;;;24.33;12.80;;;6.20;99.90;;;;;;5070559;28;20388;-75
2022/11/18 08:17:21;;;;;;;27.17;13.98;;;6.40;99.90;;;;;;5071476;28;20108;-75
2022/11/18 08:19:46;;;;;;;23.55;14.15;;;6.20;99.90;;;;;;5070039;28;20074;-75
2022/11/18 08:22:12;;;;;;;28.42;16.33;;;6.10;99.90;;;;;;5070288;28;20040;-75
2022/11/18 08:24:37;;;;;;;27.23;14.18;;;6.30;99.90;;;;;;5069978;28;20497;-75
2022/11/18 08:27:03;;;;;;;28.40;16.27;;;6.30;99.90;;;;;;5070183;28;20048;-74
2022/11/18 08:29:29;;;;;;;26.02;14.73;;;6.10;99.90;;;;;;5070149;28;20048;-79
2022/11/18 08:31:55;;;;;;;25.98;14.63;;;6.40;99.90;;;;;;5069768;28;20033;-77
2022/11/18 08:34:20;;;;;;;29.65;16.55;;;6.30;99.90;;;;;;5074141;28;20419;-78
2022/11/18 08:36:46;;;;;;;25.55;14.10;;;6.50;99.90;;;;;;5070171;28;20131;-77
2022/11/18 08:39:11;;;;;;;24.95;12.75;;;6.50;99.90;;;;;;5070162;28;20036;-77
2022/11/18 08:41:42;;;;;;;21.95;12.23;;;6.30;99.90;;;;;;5053698;28;20050;-76
2022/11/18 08:44:11;;;;;;;22.58;11.90;;;6.50;99.90;;;;;;5069686;28;20116;-78
2022/11/18 08:46:37;;;;;;;20.02;11.82;;;6.60;99.90;;;;;;5070025;28;20041;-77
2022/11/18 08:49:02;;;;;;;19.60;12.10;;;6.40;99.90;;;;;;5070133;28;20143;-77
2022/11/18 08:51:28;;;;;;;20.08;11.57;;;6.30;99.90;;;;;;5069944;28;20037;-76
2022/11/18 08:53:54;;;;;;;28.42;12.52;;;6.60;99.90;;;;;;5070994;28;20036;-78
2022/11/18 08:56:22;;;;;;;22.58;11.45;;;6.30;99.90;;;;;;5072949;28;20078;-77
2022/11/18 08:58:47;;;;;;;18.48;11.25;;;6.60;99.90;;;;;;5073923;28;20051;-77
2022/11/18 09:01:13;;;;;;;17.42;10.40;;;6.30;99.90;;;;;;5075381;28;20632;-77
2022/11/18 09:03:39;;;;;;;17.13;10.63;;;6.40;99.90;;;;;;5073350;28;20048;-76
2022/11/18 09:06:10;;;;;;;25.05;14.13;;;6.60;99.90;;;;;;5080926;28;20044;-76
2022/11/18 09:08:36;;;;;;;28.52;15.00;;;6.40;99.90;;;;;;5084437;28;20040;-77
2022/11/18 09:11:08;;;;;;;21.48;13.77;;;6.40;99.90;;;;;;5083285;28;20071;-76
2022/11/18 09:13:34;;;;;;;22.40;13.02;;;6.40;99.90;;;;;;5082964;28;20045;-77
2022/11/18 09:16:00;;;;;;;21.08;13.02;;;6.20;99.90;;;;;;5090548;28;20071;-77
2022/11/18 09:18:26;;;;;;;19.30;12.52;;;6.30;99.90;;;;;;5078334;28;20090;-78
2022/11/18 09:20:56;;;;;;;20.80;12.88;;;6.40;99.90;;;;;;5073822;28;20044;-78
2022/11/18 09:23:22;;;;;;;22.40;12.27;;;6.40;99.90;;;;;;5073227;28;20044;-77
2022/11/18 09:25:48;;;;;;;26.00;11.98;;;6.40;99.90;;;;;;5073519;28;20044;-77
2022/11/18 09:28:13;;;;;;;23.02;12.32;;;6.30;99.90;;;;;;5073471;28;20383;-76
2022/11/18 09:30:39;;;;;;;17.75;10.43;;;6.20;99.90;;;;;;5081135;28;20585;-77
2022/11/18 09:33:06;;;;;;;15.02;9.98;;;6.40;99.90;;;;;;5084212;28;20040;-77
2022/11/18 09:35:32;;;;;;;18.92;10.55;;;6.40;99.90;;;;;;5093590;28;20056;-75
2022/11/18 09:37:58;;;;;;;16.13;10.02;;;6.50;99.90;;;;;;5093483;28;20051;-76
2022/11/18 09:40:24;;;;;;;21.23;11.23;;;6.40;99.90;;;;;;5093358;28;20040;-75
2022/11/18 09:43:12;;;;;;;23.38;11.60;;;6.50;99.90;;;;;;5093154;28;20040;-76
2022/11/18 09:45:45;;;;;;;21.45;10.75;;;6.20;99.90;;;;;;5093660;28;20066;-75
2022/11/18 09:49:11;;;;;;;19.88;11.40;;;6.20;99.90;;;;;;5093412;28;20046;-75
2022/11/18 09:51:11;;;;;;;17.80;10.50;;;6.40;99.90;;;;;;5093349;28;20542;-76
2022/11/18 09:53:41;;;;;;;18.80;10.38;;;6.20;99.90;;;;;;5093066;28;20057;-75
2022/11/18 09:56:14;;;;;;;18.02;10.60;;;6.30;99.90;;;;;;5076384;28;20083;-76
2022/11/18 09:58:40;;;;;;;19.45;11.38;;;6.10;99.90;;;;;;5093179;28;20044;-75
2022/11/18 10:01:16;;;;;;;19.17;10.77;;;6.10;99.90;;;;;;5092954;28;20119;-76
2022/11/18 10:03:42;;;;;;;20.67;12.50;;;6.10;99.90;;;;;;5075567;28;20436;-75
2022/11/18 10:06:08;;;;;;;24.80;13.43;;;6.10;99.90;;;;;;5092710;28;20035;-76
2022/11/18 10:09:05;;;;;;;22.95;13.07;;;6.10;99.90;;;;;;5092885;28;20052;-75
2022/11/18 10:11:41;;;;;;;24.83;14.70;;;6.10;99.90;;;;;;5092841;28;20043;-76
2022/11/18 10:14:39;;;;;;;26.45;14.23;;;6.10;99.90;;;;;;5092786;28;20401;-76
2022/11/18 10:17:20;;;;;;;25.17;15.23;;;6.20;99.90;;;;;;5093177;28;20335;-75
2022/11/18 10:19:53;;;;;;;29.10;17.10;;;6.00;99.90;;;;;;5094225;28;20040;-74
2022/11/18 10:22:45;;;;;;;29.15;16.05;;;6.10;99.90;;;;;;5075825;28;20059;-76
2022/11/18 10:25:16;;;;;;;29.15;16.98;;;5.80;99.90;;;;;;5094087;28;20051;-76
2022/11/18 10:27:44;;;;;;;28.38;15.88;;;5.80;99.90;;;;;;5092723;28;20138;-76
2022/11/18 10:30:19;;;;;;;29.15;15.52;;;5.80;99.90;;;;;;5092556;28;20036;-75
2022/11/18 10:33:03;;;;;;;28.92;15.95;;;5.80;99.90;;;;;;5091334;28;20044;-75
2022/11/18 10:35:37;;;;;;;29.65;15.23;;;6.00;99.90;;;;;;5086285;28;20483;-75
2022/11/18 10:38:12;;;;;;;29.65;16.67;;;5.90;99.90;;;;;;5082283;28;20036;-75
2022/11/18 10:41:01;;;;;;;37.60;19.30;;;6.00;99.90;;;;;;5085125;28;20032;-76
2022/11/18 10:43:48;;;;;;;34.97;19.92;;;5.80;99.90;;;;;;5081035;28;20127;-75
2022/11/18 10:46:26;;;;;;;40.22;20.65;;;5.70;99.90;;;;;;5072653;28;20411;-76
2022/11/18 10:49:15;;;;;;;39.15;20.83;;;5.80;99.90;;;;;;5082411;28;20032;-77
2022/11/18 10:51:45;;;;;;;39.63;19.50;;;5.60;99.90;;;;;;5081954;28;20024;-76
2022/11/18 10:54:22;;;;;;;38.47;20.77;;;5.60;99.90;;;;;;5085808;28;20126;-76
2022/11/18 10:57:11;;;;;;;42.72;21.30;;;5.80;99.90;;;;;;5080720;28;20435;-76
2022/11/18 10:59:46;;;;;;;37.90;19.38;;;5.70;99.90;;;;;;5082331;28;20040;-76
2022/11/18 11:02:29;;;;;;;40.70;20.83;;;5.50;99.90;;;;;;5085017;28;20047;-77
2022/11/18 11:04:56;;;;;;;40.10;20.50;;;5.60;99.90;;;;;;5091817;28;20080;-76
2022/11/18 11:07:33;;;;;;;37.08;19.88;;;5.60;99.90;;;;;;5086484;28;20039;-77
2022/11/18 11:10:05;;;;;;;40.97;22.88;;;5.60;99.90;;;;;;5086720;28;20482;-78
2022/11/18 11:12:36;;;;;;;37.53;19.42;;;5.30;99.90;;;;;;5091259;28;20518;-76
2022/11/18 11:15:08;;;;;;;39.85;20.15;;;5.50;99.90;;;;;;5091823;28;20044;-78
2022/11/18 11:20:43;;;;;;;36.67;19.75;;;5.50;99.90;;;;;;5091536;28;20590;-76
2022/11/18 11:23:13;;;;;;;34.90;19.67;;;5.50;99.90;;;;;;5092541;28;20040;-78
2022/11/18 11:25:43;;;;;;;34.45;19.50;;;5.50;99.90;;;;;;5091611;28;20055;-80
2022/11/18 11:28:17;;;;;;;36.67;21.48;;;5.60;99.90;;;;;;5091612;28;20036;-77
2022/11/18 11:31:07;;;;;;;41.58;20.45;;;5.30;99.90;;;;;;5092483;28;20097;-77
2022/11/18 11:33:50;;;;;;;34.03;18.58;;;5.30;99.90;;;;;;5091033;28;20040;-77
2022/11/18 11:36:22;;;;;;;34.85;17.27;;;5.40;99.90;;;;;;5091118;28;20051;-77
2022/11/18 11:39:24;;;;;;;29.75;17.95;;;5.40;99.90;;;;;;5084621;28;20040;-78
2022/11/18 11:42:09;;;;;;;38.83;20.95;;;5.50;99.90;;;;;;5089916;28;20120;-78
2022/11/18 11:45:06;;;;;;;32.35;16.77;;;5.50;99.90;;;;;;5090875;28;20051;-78
2022/11/18 11:47:56;;;;;;;30.20;17.73;;;5.60;99.90;;;;;;5090980;28;20502;-78
2022/11/18 11:50:57;;;;;;;29.55;17.58;;;5.50;99.90;;;;;;5091162;28;20052;-79
2022/11/18 11:53:41;;;;;;;31.17;18.42;;;5.40;99.90;;;;;;5090940;28;20046;-78
2022/11/18 11:56:12;;;;;;;28.25;15.95;;;5.20;99.90;;;;;;5091174;28;20058;-77
2022/11/18 11:59:01;;;;;;;27.92;15.93;;;5.20;99.90;;;;;;5091008;28;20044;-78
2022/11/18 12:01:41;;;;;;;26.48;14.90;;;5.40;99.90;;;;;;5092150;28;20067;-78
2022/11/18 12:04:38;;;;;;;29.73;16.15;;;5.50;99.90;;;;;;5086171;28;20049;-78
2022/11/18 12:07:10;;;;;;;27.38;14.93;;;5.20;99.90;;;;;;5080275;28;20031;-76
2022/11/18 12:09:45;;;;;;;31.70;16.33;;;5.40;99.90;;;;;;5070715;28;20139;-77
2022/11/18 12:12:33;;;;;;;25.50;14.73;;;5.10;99.90;;;;;;5072907;28;20036;-77
2022/11/18 12:15:36;;;;;;;27.70;15.85;;;5.10;99.90;;;;;;5070506;28;20124;-78
2022/11/18 12:18:15;;;;;;;24.63;14.00;;;5.30;99.90;;;;;;5080317;28;20048;-78
2022/11/18 12:20:46;;;;;;;23.23;14.10;;;5.10;99.90;;;;;;5079853;28;20086;-77
2022/11/18 12:23:13;;;;;;;25.60;14.45;;;5.30;99.90;;;;;;5088754;28;20043;-76
2022/11/18 12:26:07;;;;;;;23.58;12.70;;;5.10;99.90;;;;;;5090580;28;20495;-76
2022/11/18 12:28:41;;;;;;;26.55;13.50;;;5.10;99.90;;;;;;5082358;28;20551;-77
2022/11/18 12:31:19;;;;;;;24.77;14.85;;;5.20;99.90;;;;;;5090397;28;20563;-77
2022/11/18 12:33:48;;;;;;;26.02;14.63;;;5.30;99.90;;;;;;5090307;28;20052;-77
2022/11/18 12:36:35;;;;;;;28.25;14.77;;;5.00;99.90;;;;;;5090378;28;20126;-76
2022/11/18 12:39:32;;;;;;;27.10;15.25;;;5.00;99.90;;;;;;5077718;28;20059;-76
2022/11/18 12:44:44;;;;;;;30.02;17.40;;;4.90;99.90;;;;;;5090159;28;20409;-76
2022/11/18 12:47:15;;;;;;;33.97;18.50;;;4.70;99.90;;;;;;5073501;28;20040;-76
2022/11/18 12:49:43;;;;;;;38.28;18.58;;;4.80;99.90;;;;;;5091542;28;20406;-76
2022/11/18 12:52:30;;;;;;;38.97;21.73;;;4.70;99.90;;;;;;5090386;28;20044;-77
2022/11/18 12:55:02;;;;;;;39.15;20.45;;;4.90;99.90;;;;;;5090142;28;20036;-77
2022/11/18 12:57:31;;;;;;;37.78;20.85;;;4.70;99.90;;;;;;5090239;28;20044;-77
2022/11/18 12:59:57;;;;;;;42.40;21.30;;;4.60;99.90;;;;;;5089283;28;20119;-76
2022/11/18 13:02:24;;;;;;;41.65;20.95;;;4.70;99.90;;;;;;5089610;28;20113;-76
2022/11/18 13:05:05;;;;;;;38.75;20.35;;;4.50;99.90;;;;;;5081537;28;20036;-77
2022/11/18 13:10:41;;;;;;;34.72;18.48;;;4.80;99.90;;;;;;5078097;28;20093;-77
2022/11/18 13:13:28;;;;;;;36.33;20.27;;;4.80;99.90;;;;;;5069561;28;20047;-77
2022/11/18 13:18:51;;;;;;;29.25;17.20;;;4.70;99.90;;;;;;5069938;28;20044;-76